createdAt,value
2023-04-01T00:00:54.853Z,99821.47
2023-04-01T00:03:24.579Z,99825.69
2023-04-01T00:05:52.828Z,99827.88
2023-04-01T00:08:20.746Z,99833.47
2023-04-01T00:10:48.581Z,99823.06
2023-04-01T00:13:17.318Z,99830.25
2023-04-01T00:15:46.816Z,99830.72
2023-04-01T00:18:14.925Z,99834.06
2023-04-01T00:20:47.395Z,99834.72
2023-04-01T00:23:16.255Z,99834.47
2023-04-01T00:25:46.361Z,99829.81
2023-04-01T00:28:14.009Z,99839.59
2023-04-01T00:30:42.352Z,99841.06
2023-04-01T00:33:10.116Z,99831.47
2023-04-01T00:35:38.850Z,99834.78
2023-04-01T00:38:07.692Z,99839.25
2023-04-01T00:40:39.369Z,99845.34
2023-04-01T00:43:25.693Z,99841.53
2023-04-01T00:45:53.351Z,99849.28
2023-04-01T00:48:26.615Z,99844.91
2023-04-01T00:51:06.419Z,99854.38
2023-04-01T00:53:37.990Z,99855.13
2023-04-01T00:56:13.864Z,99856.56
2023-04-01T00:58:52.961Z,99859.53
2023-04-01T01:01:24.330Z,99863.72
2023-04-01T01:03:51.996Z,99856.81
2023-04-01T01:06:40.145Z,99861.47
2023-04-01T01:09:15.596Z,99856.50
2023-04-01T01:11:51.862Z,99850.94
2023-04-01T01:14:44.719Z,99852.50
2023-04-01T01:17:37.363Z,99853.56
2023-04-01T01:20:25.959Z,99861.41
2023-04-01T01:23:16.199Z,99855.03
2023-04-01T01:26:00.497Z,99860.75
2023-04-01T01:28:50.309Z,99850.75
2023-04-01T01:31:35.032Z,99852.06
2023-04-01T01:34:33.788Z,99852.06
2023-04-01T01:37:10.829Z,99848.81
2023-04-01T01:39:40.774Z,99848.00
2023-04-01T01:42:12.751Z,99848.81
2023-04-01T01:44:44.106Z,99841.81
2023-04-01T01:47:14.598Z,99839.91
2023-04-01T01:49:44.531Z,99841.91
2023-04-01T01:52:13.857Z,99847.88
2023-04-01T01:54:55.749Z,99845.16
2023-04-01T01:57:29.951Z,99837.06
2023-04-01T02:00:13.903Z,99829.09
2023-04-01T02:02:47.199Z,99841.56
2023-04-01T02:05:22.885Z,99844.31
2023-04-01T02:08:02.768Z,99842.75
2023-04-01T02:10:35.426Z,99839.19
2023-04-01T02:13:09.009Z,99840.03
2023-04-01T02:15:44.368Z,99838.97
2023-04-01T02:18:14.449Z,99834.78
2023-04-01T02:20:44.346Z,99835.97
2023-04-01T02:23:12.983Z,99848.22
2023-04-01T02:25:43.440Z,99841.06
2023-04-01T02:28:13.409Z,99847.50
2023-04-01T02:30:43.943Z,99853.22
2023-04-01T02:33:12.414Z,99854.50
2023-04-01T02:35:40.437Z,99846.78
2023-04-01T02:38:09.746Z,99846.53
2023-04-01T02:40:50.635Z,99834.16
2023-04-01T02:43:20.042Z,99831.31
2023-04-01T02:45:48.069Z,99827.25
2023-04-01T02:48:16.121Z,99834.28
2023-04-01T02:50:43.826Z,99850.00
2023-04-01T02:53:12.355Z,99842.63
2023-04-01T02:55:40.452Z,99853.44
2023-04-01T02:58:08.544Z,99859.03
2023-04-01T03:00:36.466Z,99855.97
2023-04-01T03:03:04.931Z,99859.41
2023-04-01T03:05:32.847Z,99850.34
2023-04-01T03:08:01.057Z,99859.19
2023-04-01T03:10:29.160Z,99865.38
2023-04-01T03:12:56.855Z,99869.03
2023-04-01T03:15:24.938Z,99864.00
2023-04-01T03:17:52.638Z,99849.38
2023-04-01T03:20:21.349Z,99845.22
2023-04-01T03:22:49.477Z,99856.75
2023-04-01T03:25:19.675Z,99862.81
2023-04-01T03:27:47.244Z,99862.44
2023-04-01T03:30:14.848Z,99856.97
2023-04-01T03:32:51.579Z,99851.50
2023-04-01T03:35:19.532Z,99846.75
2023-04-01T03:37:47.994Z,99855.06
2023-04-01T03:40:16.215Z,99859.91
2023-04-01T03:42:44.245Z,99861.69
2023-04-01T03:45:13.105Z,99869.81
2023-04-01T03:50:32.823Z,99868.59
2023-04-01T03:53:01.223Z,99872.63
2023-04-01T03:55:29.401Z,99873.34
2023-04-01T03:57:57.515Z,99884.78
2023-04-01T04:00:25.184Z,99887.00
2023-04-01T04:02:57.735Z,99881.88
2023-04-01T04:05:31.409Z,99881.06
2023-04-01T04:07:59.739Z,99887.69
2023-04-01T04:10:28.106Z,99895.59
2023-04-01T04:12:56.219Z,99892.34
2023-04-01T04:15:26.542Z,99891.91
2023-04-01T04:17:54.165Z,99894.31
2023-04-01T04:20:21.835Z,99898.53
2023-04-01T04:22:50.233Z,99896.50
2023-04-01T04:25:18.432Z,99889.06
2023-04-01T04:27:46.561Z,99892.94
2023-04-01T04:30:16.208Z,99891.31
2023-04-01T04:32:44.280Z,99896.09
2023-04-01T04:35:13.315Z,99898.47
2023-04-01T04:37:41.938Z,99898.31
2023-04-01T04:40:10.170Z,99903.78
2023-04-01T04:42:37.892Z,99903.66
2023-04-01T04:45:11.876Z,99901.56
2023-04-01T04:47:43.364Z,99901.00
2023-04-01T04:50:12.808Z,99902.13
2023-04-01T04:52:42.493Z,99896.84
2023-04-01T04:55:10.668Z,99904.84
2023-04-01T04:57:39.340Z,99905.38
2023-04-01T05:00:07.682Z,99911.56
2023-04-01T05:02:58.020Z,99914.22
2023-04-01T05:05:26.218Z,99909.41
2023-04-01T05:07:54.407Z,99924.47
2023-04-01T05:10:22.178Z,99933.00
2023-04-01T05:12:50.929Z,99927.22
2023-04-01T05:15:22.568Z,99914.50
2023-04-01T05:17:50.363Z,99904.72
2023-04-01T05:20:18.732Z,99907.84
2023-04-01T05:22:46.378Z,99912.81
2023-04-01T05:25:14.162Z,99921.28
2023-04-01T05:27:42.652Z,99924.91
2023-04-01T05:30:10.942Z,99914.44
2023-04-01T05:33:04.579Z,99917.63
2023-04-01T05:35:32.498Z,99922.69
2023-04-01T05:38:00.886Z,99927.41
2023-04-01T05:40:30.290Z,99928.41
2023-04-01T05:42:58.534Z,99932.69
2023-04-01T05:45:26.275Z,99931.81
2023-04-01T05:47:56.727Z,99933.50
2023-04-01T05:50:24.817Z,99929.34
2023-04-01T05:52:52.541Z,99933.75
2023-04-01T05:55:20.645Z,99941.00
2023-04-01T05:57:50.576Z,99946.38
2023-04-01T06:00:21.034Z,99937.56
2023-04-01T06:02:49.301Z,99925.88
2023-04-01T06:05:24.214Z,99939.00
2023-04-01T06:07:59.348Z,99931.97
2023-04-01T06:10:54.130Z,99933.25
2023-04-01T06:13:47.235Z,99947.81
2023-04-01T06:16:39.542Z,99937.16
2023-04-01T06:19:12.180Z,99936.50
2023-04-01T06:22:04.439Z,99933.88
2023-04-01T06:24:41.893Z,99925.88
2023-04-01T06:27:46.592Z,99936.78
2023-04-01T06:30:54.505Z,99943.00
2023-04-01T06:34:11.612Z,99945.31
2023-04-01T06:37:13.559Z,99967.19
2023-04-01T06:39:59.732Z,99960.75
2023-04-01T06:42:52.228Z,99963.19
2023-04-01T06:45:51.076Z,99959.97
2023-04-01T06:48:39.928Z,99965.38
2023-04-01T06:51:57.710Z,99965.06
2023-04-01T06:54:57.202Z,99963.19
2023-04-01T06:58:01.509Z,99963.44
2023-04-01T07:00:41.099Z,99967.09
2023-04-01T07:03:54.766Z,99973.69
2023-04-01T07:06:31.660Z,99976.88
2023-04-01T07:09:06.625Z,99971.53
2023-04-01T07:11:59.021Z,99982.00
2023-04-01T07:14:52.446Z,99979.06
2023-04-01T07:17:35.176Z,99979.84
2023-04-01T07:20:12.345Z,99982.09
2023-04-01T07:22:45.804Z,99980.63
2023-04-01T07:25:32.755Z,99979.09
2023-04-01T07:28:20.339Z,99981.09
2023-04-01T07:31:17.001Z,99983.19
2023-04-01T07:34:16.395Z,99977.81
2023-04-01T07:37:07.102Z,99970.72
2023-04-01T07:39:44.798Z,99987.50
2023-04-01T07:42:26.385Z,99982.94
2023-04-01T07:45:32.261Z,99989.25
2023-04-01T07:48:07.121Z,99994.53
2023-04-01T07:50:51.892Z,99994.28
2023-04-01T07:53:37.994Z,99995.66
2023-04-01T07:56:10.836Z,99997.00
2023-04-01T07:58:52.855Z,99995.03
2023-04-01T08:01:46.458Z,99994.28
2023-04-01T08:04:24.617Z,99999.28
2023-04-01T08:07:08.019Z,99995.03
2023-04-01T08:10:21.332Z,99987.38
2023-04-01T08:14:09.312Z,99989.88
2023-04-01T08:17:04.049Z,99988.56
2023-04-01T08:20:18.748Z,99988.28
2023-04-01T08:23:06.657Z,99983.91
2023-04-01T08:26:04.162Z,99996.75
2023-04-01T08:28:55.882Z,99997.13
2023-04-01T08:31:32.460Z,99995.38
2023-04-01T08:34:05.911Z,99990.34
2023-04-01T08:36:42.160Z,99983.28
2023-04-01T08:39:32.462Z,99979.94
2023-04-01T08:42:13.583Z,99973.47
2023-04-01T08:45:25.865Z,99986.22
2023-04-01T08:48:23.569Z,99989.66
2023-04-01T08:51:18.664Z,99989.66
2023-04-01T08:53:58.623Z,99993.00
2023-04-01T08:56:56.208Z,99992.53
2023-04-01T08:59:54.744Z,99991.94
2023-04-01T09:02:58.347Z,99993.09
2023-04-01T09:05:49.009Z,99998.31
2023-04-01T09:08:35.597Z,100005.78
2023-04-01T09:11:26.963Z,100005.53
2023-04-01T09:14:16.985Z,100005.53
2023-04-01T09:17:26.215Z,100012.22
2023-04-01T09:20:30.779Z,100004.75
2023-04-01T09:23:41.676Z,99991.22
2023-04-01T09:26:09.549Z,99992.59
2023-04-01T09:28:57.454Z,100001.25
2023-04-01T09:31:53.777Z,99985.09
2023-04-01T09:35:23.053Z,99990.81
2023-04-01T09:38:10.845Z,99978.78
2023-04-01T09:40:38.553Z,99973.91
2023-04-01T09:43:26.982Z,99975.84
2023-04-01T09:46:08.250Z,99986.34
2023-04-01T09:48:59.482Z,99980.81
2023-04-01T09:51:50.935Z,99969.81
2023-04-01T09:54:38.117Z,99983.31
2023-04-01T09:57:15.359Z,99975.94
2023-04-01T10:00:18.418Z,99972.41
2023-04-01T10:03:30.071Z,99974.34
2023-04-01T10:06:08.737Z,99961.66
2023-04-01T10:09:18.733Z,99968.38
2023-04-01T10:12:34.659Z,99964.69
2023-04-01T10:15:31.346Z,99960.13
2023-04-01T10:18:35.785Z,99952.28
2023-04-01T10:21:08.124Z,99952.59
2023-04-01T10:24:17.190Z,99944.06
2023-04-01T10:27:32.222Z,99938.31
2023-04-01T10:30:18.255Z,99948.25
2023-04-01T10:33:16.499Z,99947.19
2023-04-01T10:36:12.182Z,99950.38
2023-04-01T10:38:43.308Z,99941.00
2023-04-01T10:41:42.453Z,99946.56
2023-04-01T10:44:49.988Z,99941.09
2023-04-01T10:48:07.859Z,99931.44
2023-04-01T10:51:16.027Z,99937.47
2023-04-01T10:54:02.656Z,99934.69
2023-04-01T10:57:17.831Z,99922.22
2023-04-01T11:00:38.555Z,99930.22
2023-04-01T11:03:57.716Z,99920.66
2023-04-01T11:07:07.767Z,99914.75
2023-04-01T11:10:00.485Z,99910.00
2023-04-01T11:12:36.155Z,99910.38
2023-04-01T11:15:53.588Z,99913.28
2023-04-01T11:18:49.549Z,99918.28
2023-04-01T11:21:50.728Z,99925.50
2023-04-01T11:24:54.878Z,99919.84
2023-04-01T11:27:51.831Z,99918.91
2023-04-01T11:30:59.772Z,99915.91
2023-04-01T11:33:34.777Z,99907.72
2023-04-01T11:36:08.795Z,99913.28
2023-04-01T11:38:52.336Z,99907.84
2023-04-01T11:41:47.393Z,99910.56
2023-04-01T11:44:41.114Z,99911.59
2023-04-01T11:48:02.283Z,99909.53
2023-04-01T11:51:04.990Z,99896.25
2023-04-01T11:53:39.276Z,99902.00
2023-04-01T11:56:26.376Z,99896.78
2023-04-01T11:59:05.537Z,99902.13
2023-04-01T12:01:53.479Z,99894.19
2023-04-01T12:04:44.157Z,99892.59
2023-04-01T12:07:14.776Z,99894.31
2023-04-01T12:10:19.914Z,99902.91
2023-04-01T12:13:11.373Z,99896.78
2023-04-01T12:15:42.725Z,99895.66
2023-04-01T12:18:27.371Z,99882.59
2023-04-01T12:21:01.938Z,99879.97
2023-04-01T12:23:54.217Z,99878.19
2023-04-01T12:26:46.427Z,99890.78
2023-04-01T12:29:52.094Z,99885.09
2023-04-01T12:32:29.380Z,99880.28
2023-04-01T12:35:21.579Z,99882.66
2023-04-01T12:38:19.158Z,99870.06
2023-04-01T12:41:02.224Z,99877.41
2023-04-01T12:44:00.869Z,99868.34
2023-04-01T12:46:49.504Z,99869.41
2023-04-01T12:49:38.887Z,99867.28
2023-04-01T12:52:40.528Z,99856.78
2023-04-01T12:55:26.641Z,99855.84
2023-04-01T12:58:49.135Z,99861.00
2023-04-01T13:01:56.008Z,99864.13
2023-04-01T13:04:46.205Z,99869.16
2023-04-01T13:07:21.418Z,99856.47
2023-04-01T13:10:21.634Z,99840.97
2023-04-01T13:13:27.249Z,99849.38
2023-04-01T13:16:11.204Z,99848.19
2023-04-01T13:18:55.090Z,99843.44
2023-04-01T13:21:39.894Z,99846.44
2023-04-01T13:24:33.257Z,99837.84
2023-04-01T13:27:10.749Z,99835.53
2023-04-01T13:29:45.474Z,99826.22
2023-04-01T13:32:43.246Z,99827.78
2023-04-01T13:35:42.405Z,99821.13
2023-04-01T13:38:37.785Z,99816.03
2023-04-01T13:41:23.011Z,99814.41
2023-04-01T13:44:11.030Z,99794.47
2023-04-01T13:47:11.864Z,99803.16
2023-04-01T13:49:51.739Z,99787.75
2023-04-01T13:52:48.363Z,99789.22
2023-04-01T13:55:29.234Z,99788.88
2023-04-01T13:58:39.418Z,99789.41
2023-04-01T14:01:08.750Z,99780.19
2023-04-01T14:03:42.411Z,99782.81
2023-04-01T14:06:21.672Z,99788.38
2023-04-01T14:08:54.926Z,99779.59
2023-04-01T14:11:32.085Z,99780.91
2023-04-01T14:14:21.141Z,99783.41
2023-04-01T14:17:14.240Z,99772.97
2023-04-01T14:20:03.501Z,99765.69
2023-04-01T14:22:43.969Z,99765.22
2023-04-01T14:25:39.814Z,99768.59
2023-04-01T14:28:14.018Z,99767.84
2023-04-01T14:30:58.948Z,99770.97
2023-04-01T14:33:47.414Z,99763.72
2023-04-01T14:36:27.294Z,99764.03
2023-04-01T14:39:21.139Z,99758.19
2023-04-01T14:42:21.514Z,99750.72
2023-04-01T14:44:59.175Z,99747.72
2023-04-01T14:47:49.373Z,99741.88
2023-04-01T14:50:22.353Z,99740.88
2023-04-01T14:52:56.136Z,99728.63
2023-04-01T14:55:42.998Z,99728.53
2023-04-01T14:58:15.871Z,99735.47
2023-04-01T15:01:01.752Z,99734.25
2023-04-01T15:03:49.070Z,99740.22
2023-04-01T15:06:22.519Z,99739.66
2023-04-01T15:09:10.309Z,99738.88
2023-04-01T15:11:50.297Z,99743.72
2023-04-01T15:14:39.726Z,99745.03
2023-04-01T15:17:22.208Z,99735.50
2023-04-01T15:20:20.696Z,99735.94
2023-04-01T15:23:09.370Z,99732.50
2023-04-01T15:25:52.360Z,99730.25
2023-04-01T15:28:34.803Z,99725.31
2023-04-01T15:31:12.451Z,99723.03
2023-04-01T15:33:43.127Z,99722.25
2023-04-01T15:36:34.188Z,99712.47
2023-04-01T15:39:36.998Z,99727.19
2023-04-01T15:42:46.516Z,99730.94
2023-04-01T15:45:19.766Z,99730.22
2023-04-01T15:48:02.322Z,99725.53
2023-04-01T15:50:42.452Z,99723.75
2023-04-01T15:53:25.816Z,99718.25
2023-04-01T15:55:56.554Z,99715.72
2023-04-01T15:58:38.691Z,99723.00
2023-04-01T16:01:44.208Z,99724.00
2023-04-01T16:04:39.437Z,99723.47
2023-04-01T16:07:16.395Z,99720.72
2023-04-01T16:10:10.674Z,99721.25
2023-04-01T16:12:47.902Z,99721.31
2023-04-01T16:15:29.491Z,99723.84
2023-04-01T16:18:48.389Z,99732.41
2023-04-01T16:21:53.584Z,99721.84
2023-04-01T16:24:26.534Z,99723.34
2023-04-01T16:27:05.338Z,99720.16
2023-04-01T16:29:52.520Z,99724.84
2023-04-01T16:32:33.273Z,99712.19
2023-04-01T16:35:16.222Z,99719.59
2023-04-01T16:37:50.452Z,99717.53
2023-04-01T16:40:53.718Z,99719.25
2023-04-01T16:43:40.385Z,99717.59
2023-04-01T16:46:44.807Z,99726.06
2023-04-01T16:49:12.678Z,99719.22
2023-04-01T16:51:53.207Z,99727.00
2023-04-01T16:54:35.696Z,99722.34
2023-04-01T16:57:18.158Z,99725.25
2023-04-01T17:00:24.522Z,99727.72
2023-04-01T17:02:58.901Z,99729.41
2023-04-01T17:05:39.060Z,99730.47
2023-04-01T17:08:18.579Z,99731.22
2023-04-01T17:10:59.370Z,99727.16
2023-04-01T17:13:37.416Z,99730.59
2023-04-01T17:16:40.171Z,99738.25
2023-04-01T17:19:10.779Z,99742.59
2023-04-01T17:21:44.661Z,99741.28
2023-04-01T17:24:33.085Z,99743.84
2023-04-01T17:27:49.638Z,99748.25
2023-04-01T17:30:37.579Z,99736.97
2023-04-01T17:33:33.309Z,99744.22
2023-04-01T17:36:13.415Z,99742.94
2023-04-01T17:39:29.639Z,99739.81
2023-04-01T17:42:11.063Z,99746.63
2023-04-01T17:44:59.182Z,99746.75
2023-04-01T17:47:36.573Z,99746.38
2023-04-01T17:50:10.498Z,99756.19
2023-04-01T17:52:50.259Z,99755.84
2023-04-01T17:55:46.393Z,99752.53
2023-04-01T17:58:23.515Z,99762.50
2023-04-01T18:01:03.226Z,99768.13
2023-04-01T18:03:37.303Z,99768.19
2023-04-01T18:06:29.756Z,99780.88
2023-04-01T18:09:31.788Z,99780.41
2023-04-01T18:12:07.026Z,99776.56
2023-04-01T18:15:10.803Z,99779.16
2023-04-01T18:18:04.170Z,99785.47
2023-04-01T18:20:40.979Z,99794.56
2023-04-01T18:23:27.257Z,99787.25
2023-04-01T18:26:04.448Z,99789.47
2023-04-01T18:28:36.125Z,99791.94
2023-04-01T18:31:04.145Z,99801.72
2023-04-01T18:33:53.923Z,99800.97
2023-04-01T18:36:37.379Z,99818.09
2023-04-01T18:39:33.826Z,99825.06
2023-04-01T18:42:18.326Z,99821.91
2023-04-01T18:44:59.086Z,99830.69
2023-04-01T18:48:08.257Z,99827.53
2023-04-01T18:50:53.264Z,99828.56
2023-04-01T18:53:33.048Z,99831.88
2023-04-01T18:56:04.858Z,99837.53
2023-04-01T18:58:35.613Z,99839.53
2023-04-01T19:01:13.702Z,99839.03
2023-04-01T19:03:50.959Z,99842.00
2023-04-01T19:06:28.685Z,99845.97
2023-04-01T19:09:13.215Z,99843.84
2023-04-01T19:12:08.732Z,99845.00
2023-04-01T19:14:48.514Z,99849.47
2023-04-01T19:17:54.591Z,99854.72
2023-04-01T19:20:58.503Z,99847.78
2023-04-01T19:23:54.942Z,99858.41
2023-04-01T19:26:43.100Z,99857.72
2023-04-01T19:29:31.710Z,99864.63
2023-04-01T19:32:09.859Z,99879.50
2023-04-01T19:35:15.685Z,99877.69
2023-04-01T19:37:55.592Z,99879.88
2023-04-01T19:40:38.344Z,99890.94
2023-04-01T19:43:36.692Z,99893.41
2023-04-01T19:46:40.494Z,99900.00
2023-04-01T19:49:20.561Z,99896.00
2023-04-01T19:51:52.605Z,99896.47
2023-04-01T19:54:20.140Z,99894.84
2023-04-01T19:56:57.025Z,99893.97
2023-04-01T19:59:35.961Z,99896.81
2023-04-01T20:02:12.178Z,99891.72
2023-04-01T20:04:51.997Z,99898.38
2023-04-01T20:07:45.021Z,99897.81
2023-04-01T20:10:22.341Z,99894.28
2023-04-01T20:13:15.370Z,99895.94
2023-04-01T20:15:56.236Z,99900.78
2023-04-01T20:18:39.585Z,99901.91
2023-04-01T20:21:16.379Z,99898.63
2023-04-01T20:23:52.629Z,99891.19
2023-04-01T20:26:24.399Z,99895.38
2023-04-01T20:29:12.770Z,99892.97
2023-04-01T20:31:48.681Z,99890.56
2023-04-01T20:34:55.107Z,99904.56
2023-04-01T20:37:33.448Z,99900.09
2023-04-01T20:40:10.689Z,99900.41
2023-04-01T20:42:58.984Z,99899.78
2023-04-01T20:45:47.774Z,99904.72
2023-04-01T20:48:24.269Z,99906.28
2023-04-01T20:51:07.265Z,99908.22
2023-04-01T20:53:45.006Z,99914.03
2023-04-01T20:56:35.480Z,99914.50
2023-04-01T20:59:19.104Z,99919.56
2023-04-01T21:02:08.465Z,99916.94
2023-04-01T21:04:44.185Z,99918.66
2023-04-01T21:07:50.971Z,99919.97
2023-04-01T21:10:56.448Z,99921.81
2023-04-01T21:13:58.343Z,99926.13
2023-04-01T21:16:50.733Z,99935.94
2023-04-01T21:19:43.506Z,99935.59
2023-04-01T21:22:42.714Z,99943.88
2023-04-01T21:25:21.248Z,99945.91
2023-04-01T21:28:24.900Z,99948.09
2023-04-01T21:31:05.806Z,99946.56
2023-04-01T21:33:52.182Z,99950.59
2023-04-01T21:36:43.087Z,99958.31
2023-04-01T21:42:19.937Z,99958.25
2023-04-01T21:44:58.144Z,99964.34
2023-04-01T21:47:52.784Z,99963.72
2023-04-01T21:50:45.107Z,99962.13
2023-04-01T21:53:22.017Z,99961.50
2023-04-01T21:56:01.014Z,99964.97
2023-04-01T21:59:03.766Z,99954.78
2023-04-01T22:01:49.782Z,99957.72
2023-04-01T22:04:45.855Z,99948.25
2023-04-01T22:07:24.708Z,99954.75
2023-04-01T22:10:11.082Z,99949.06
2023-04-01T22:13:09.350Z,99952.19
2023-04-01T22:16:07.444Z,99945.81
2023-04-01T22:18:42.069Z,99950.84
2023-04-01T22:21:35.940Z,99948.59
2023-04-01T22:24:13.003Z,99946.19
2023-04-01T22:26:44.354Z,99945.47
2023-04-01T22:29:18.040Z,99947.84
2023-04-01T22:31:49.142Z,99947.22
2023-04-01T22:34:37.144Z,99949.50
2023-04-01T22:37:18.485Z,99946.22
2023-04-01T22:40:02.089Z,99948.88
2023-04-01T22:42:54.667Z,99940.31
2023-04-01T22:45:48.090Z,99946.91
2023-04-01T22:48:26.874Z,99945.41
2023-04-01T22:51:50.071Z,99953.75
2023-04-01T22:54:30.146Z,99952.50
2023-04-01T22:57:01.349Z,99959.16
2023-04-01T22:59:58.493Z,99961.59
2023-04-01T23:02:32.077Z,99963.88
2023-04-01T23:05:03.473Z,99963.47
2023-04-01T23:08:10.914Z,99965.63
2023-04-01T23:10:45.752Z,99966.75
2023-04-01T23:13:19.721Z,99969.38
2023-04-01T23:15:48.981Z,99974.88
2023-04-01T23:18:21.571Z,99980.91
2023-04-01T23:21:47.496Z,99968.34
2023-04-01T23:24:15.122Z,99968.16
2023-04-01T23:27:18.342Z,99962.59
2023-04-01T23:29:46.430Z,99974.53
2023-04-01T23:32:19.335Z,99972.16
2023-04-01T23:34:53.636Z,99971.44
2023-04-01T23:37:22.372Z,99967.44
2023-04-01T23:39:55.089Z,99975.38
2023-04-01T23:42:30.265Z,99974.41
2023-04-01T23:45:01.890Z,99971.59
2023-04-01T23:47:41.307Z,99973.22
2023-04-01T23:50:17.766Z,99971.19
2023-04-01T23:52:49.442Z,99974.38
2023-04-01T23:55:25.420Z,99982.84
2023-04-01T23:58:17.783Z,99975.88
